Time;durP1;ratioP1;P1;durP2;ratioP2;P2;SDS_P1;SDS_P2;PMS_P1;PMS_P2;Temp;Humidity;BMP_temperature;BMP_pressure;BME280_temperature;BME280_humidity;BME280_pressure;Samples;Min_cycle;Max_cycle;Signal;HPM_P1;HPM_P2
2024/03/30 00:01:39;;;;;;;95.13;17.40;;;;;;;16.76;37.23;92400.03;4971831;28;20212;-91
2024/03/30 00:04:15;;;;;;;107.65;18.05;;;;;;;16.76;37.73;92433.81;4966276;28;20231;-91
2024/03/30 00:06:41;;;;;;;92.10;17.25;;;;;;;16.81;37.50;92433.72;4974045;28;20200;-90
2024/03/30 00:09:19;;;;;;;89.80;16.65;;;;;;;16.83;36.99;92426.38;4974386;28;20255;-90
2024/03/30 00:11:52;;;;;;;97.07;17.55;;;;;;;16.84;37.18;92432.34;4973055;28;20208;-90
2024/03/30 00:14:22;;;;;;;81.70;16.77;;;;;;;16.80;37.46;92421.00;4973400;28;20271;-90
2024/03/30 00:16:50;;;;;;;89.03;16.58;;;;;;;16.75;37.62;92423.69;4972918;28;20216;-91
2024/03/30 00:19:23;;;;;;;100.05;17.58;;;;;;;16.72;37.51;92425.06;4965922;28;20208;-90
2024/03/30 00:21:50;;;;;;;99.00;18.42;;;;;;;16.70;37.58;92422.00;4973489;28;20235;-90
2024/03/30 00:24:27;;;;;;;100.50;16.85;;;;;;;16.67;37.81;92437.41;4973249;28;20227;-89
2024/03/30 00:26:56;;;;;;;100.72;17.02;;;;;;;16.64;37.93;92437.97;4973558;28;20208;-92
2024/03/30 00:29:34;;;;;;;80.10;16.83;;;;;;;16.59;37.68;92444.00;4973851;28;20243;-90
2024/03/30 00:32:03;;;;;;;89.15;16.30;;;;;;;16.54;37.82;92450.09;4973867;28;20204;-91
2024/03/30 00:34:32;;;;;;;99.03;17.40;;;;;;;16.49;37.85;92446.81;4967315;28;20260;-90
2024/03/30 00:36:59;;;;;;;88.93;16.23;;;;;;;16.50;37.64;92451.72;4969280;28;20698;-90
2024/03/30 00:39:29;;;;;;;91.65;15.32;;;;;;;16.43;37.67;92424.59;4973626;28;20188;-90
2024/03/30 00:41:57;;;;;;;84.65;15.43;;;;;;;16.45;37.60;92419.88;4973526;28;20299;-91
2024/03/30 00:44:28;;;;;;;85.03;16.33;;;;;;;16.50;37.52;92428.34;4973045;28;20231;-91
2024/03/30 00:46:54;;;;;;;89.10;15.63;;;;;;;16.49;37.36;92416.41;4974527;28;20287;-91
2024/03/30 00:49:27;;;;;;;90.55;16.35;;;;;;;16.53;37.25;92408.81;4979553;28;20291;-90
2024/03/30 00:51:52;;;;;;;85.10;14.90;;;;;;;16.53;37.50;92409.59;4970904;28;20222;-90
2024/03/30 00:54:19;;;;;;;94.25;16.55;;;;;;;16.60;37.52;92414.38;4972820;28;20224;-90
2024/03/30 00:56:46;;;;;;;95.45;15.25;;;;;;;16.63;37.14;92410.44;4972700;28;20224;-89
2024/03/30 00:59:16;;;;;;;87.90;15.18;;;;;;;16.61;37.10;92402.16;4972510;28;20204;-90
2024/03/30 01:01:42;;;;;;;82.28;15.63;;;;;;;16.64;37.32;92417.19;4973969;28;20543;-91
2024/03/30 01:04:11;;;;;;;89.20;16.83;;;;;;;16.63;37.02;92387.06;4972464;28;20224;-91
2024/03/30 01:06:37;;;;;;;81.40;14.75;;;;;;;16.63;36.87;92367.06;4963955;28;20749;-90
2024/03/30 01:09:24;;;;;;;86.30;15.45;;;;;;;16.61;36.80;92368.38;4967833;28;20212;-90
2024/03/30 01:11:54;;;;;;;86.20;14.77;;;;;;;16.58;36.20;92343.78;4972011;28;20263;-90
2024/03/30 01:14:24;;;;;;;80.82;13.75;;;;;;;16.58;36.15;92344.53;4972492;28;20776;-91
2024/03/30 01:16:57;;;;;;;80.90;14.80;;;;;;;16.60;36.29;92336.47;4971479;28;20224;-90
2024/03/30 01:19:27;;;;;;;86.90;14.07;;;;;;;16.60;36.24;92339.06;4973428;28;20189;-91
2024/03/30 01:21:54;;;;;;;67.43;13.68;;;;;;;16.60;35.80;92307.88;4967438;28;20205;-91
2024/03/30 01:24:25;;;;;;;86.95;15.18;;;;;;;16.57;35.62;92300.69;4960248;28;20231;-91
2024/03/30 01:26:59;;;;;;;73.15;14.90;;;;;;;16.58;35.66;92304.81;4952852;28;20205;-90
2024/03/30 01:29:26;;;;;;;62.50;13.38;;;;;;;16.54;35.58;92302.06;4969118;28;20216;-90
2024/03/30 01:31:54;;;;;;;77.68;13.52;;;;;;;16.59;35.69;92314.13;4972108;28;20196;-91
2024/03/30 01:34:27;;;;;;;69.40;12.70;;;;;;;16.63;35.57;92309.94;4972558;28;20271;-91
2024/03/30 01:36:55;;;;;;;78.80;13.13;;;;;;;16.59;35.61;92301.16;4972286;28;20208;-90
2024/03/30 01:39:22;;;;;;;64.35;13.25;;;;;;;16.58;35.68;92310.78;4970836;28;20634;-90
2024/03/30 01:41:51;;;;;;;77.07;12.73;;;;;;;16.57;35.15;92298.09;4956724;28;20279;-90
2024/03/30 01:44:22;;;;;;;78.53;12.48;;;;;;;16.60;35.26;92271.53;4974307;28;20255;-89
2024/03/30 01:46:52;;;;;;;89.00;13.27;;;;;;;16.60;35.05;92261.13;4981424;28;20742;-90
2024/03/30 01:49:20;;;;;;;73.07;14.82;;;;;;;16.65;35.39;92268.09;4971877;28;20204;-90
2024/03/30 01:51:50;;;;;;;81.65;12.07;;;;;;;16.64;35.16;92269.91;4971818;28;20231;-91
2024/03/30 01:54:22;;;;;;;64.20;11.80;;;;;;;16.64;34.88;92256.94;4969894;28;20315;-92
2024/03/30 01:56:55;;;;;;;65.15;12.70;;;;;;;16.59;34.91;92249.97;4961118;28;20231;-91
2024/03/30 01:59:29;;;;;;;75.13;13.32;;;;;;;16.61;35.06;92259.31;4971633;28;20208;-90
2024/03/30 02:02:05;;;;;;;82.07;13.23;;;;;;;16.63;34.86;92273.56;4971408;28;20196;-90
2024/03/30 02:04:35;;;;;;;68.43;13.02;;;;;;;16.65;35.14;92275.88;4971018;28;20574;-90
2024/03/30 02:07:04;;;;;;;62.38;12.68;;;;;;;16.54;35.42;92277.91;4970920;28;20204;-91
2024/03/30 02:09:34;;;;;;;65.45;12.77;;;;;;;16.56;35.81;92296.53;4971525;28;20214;-91
2024/03/30 02:12:02;;;;;;;62.83;12.18;;;;;;;16.53;35.50;92292.72;4960382;28;20785;-90
2024/03/30 02:14:31;;;;;;;68.40;13.18;;;;;;;16.54;35.61;92303.88;4971461;28;20228;-90
2024/03/30 02:16:56;;;;;;;71.90;14.05;;;;;;;16.58;35.90;92323.00;4969035;28;20227;-90
2024/03/30 02:19:25;;;;;;;72.53;12.20;;;;;;;16.56;35.63;92305.09;4971957;28;20682;-91
2024/03/30 02:21:54;;;;;;;66.13;12.35;;;;;;;16.52;36.38;92339.75;4971425;28;20235;-91
2024/03/30 02:24:24;;;;;;;71.25;11.75;;;;;;;16.54;37.24;92392.94;4971704;28;20290;-90
2024/03/30 02:26:56;;;;;;;68.25;11.85;;;;;;;16.57;37.28;92407.94;4966871;28;20284;-91
2024/03/30 02:29:33;;;;;;;64.03;11.90;;;;;;;16.55;36.99;92372.91;4970561;28;20220;-90
2024/03/30 02:31:59;;;;;;;77.45;12.40;;;;;;;16.55;36.98;92394.47;4971692;28;20204;-90
2024/03/30 02:34:32;;;;;;;53.50;12.45;;;;;;;16.44;37.00;92400.94;4971327;28;20341;-90
2024/03/30 02:37:03;;;;;;;68.50;12.65;;;;;;;16.34;36.65;92364.03;4970795;28;20708;-91
2024/03/30 02:39:31;;;;;;;58.63;13.13;;;;;;;16.30;36.80;92374.22;4971212;28;20610;-90
2024/03/30 02:41:59;;;;;;;55.13;11.82;;;;;;;16.27;36.78;92385.19;4979015;28;20282;-90
2024/03/30 02:44:29;;;;;;;63.05;12.63;;;;;;;16.22;36.56;92352.28;4969392;28;20311;-90
2024/03/30 02:46:59;;;;;;;57.78;11.18;;;;;;;16.12;36.66;92338.75;4970481;28;20291;-91
2024/03/30 02:49:30;;;;;;;78.55;12.68;;;;;;;16.06;36.49;92340.69;4970655;28;20735;-91
2024/03/30 02:51:59;;;;;;;64.05;12.68;;;;;;;16.02;36.63;92355.28;4970652;28;20196;-91
2024/03/30 02:54:26;;;;;;;66.00;11.93;;;;;;;16.01;36.59;92355.56;4971170;28;20231;-90
2024/03/30 02:56:55;;;;;;;72.30;12.38;;;;;;;16.00;36.91;92344.41;4969770;28;20224;-90
2024/03/30 02:59:26;;;;;;;62.90;11.70;;;;;;;16.07;36.69;92357.03;4961709;28;20208;-89
2024/03/30 03:01:53;;;;;;;59.05;12.10;;;;;;;16.09;36.45;92352.31;4964921;28;20207;-90
2024/03/30 03:04:22;;;;;;;50.10;10.35;;;;;;;16.08;36.58;92337.78;4971152;28;20244;-91
2024/03/30 03:06:48;;;;;;;73.18;13.80;;;;;;;16.08;36.62;92333.38;4970918;28;20203;-89
2024/03/30 03:09:14;;;;;;;66.00;12.77;;;;;;;16.07;36.64;92357.03;4970503;28;20717;-89
2024/03/30 03:11:43;;;;;;;64.13;11.75;;;;;;;16.07;36.95;92365.56;4971146;28;20204;-90
2024/03/30 03:14:11;;;;;;;59.38;11.45;;;;;;;16.06;36.79;92363.25;4971126;28;20303;-89
2024/03/30 03:16:39;;;;;;;59.92;11.88;;;;;;;16.03;36.66;92354.22;4966810;28;20220;-89
2024/03/30 03:19:07;;;;;;;55.65;10.85;;;;;;;16.02;37.09;92367.50;4951332;28;20256;-90
2024/03/30 03:21:39;;;;;;;57.13;11.52;;;;;;;16.00;37.12;92375.56;4963256;28;20208;-89
2024/03/30 03:24:09;;;;;;;70.93;10.50;;;;;;;16.00;37.09;92375.56;4969562;28;20702;-90
2024/03/30 03:26:35;;;;;;;59.83;12.15;;;;;;;16.02;37.11;92373.44;4970017;28;20274;-89
2024/03/30 03:29:03;;;;;;;59.05;10.77;;;;;;;16.06;36.91;92368.47;4972484;28;20628;-89
2024/03/30 03:31:30;;;;;;;46.00;9.10;;;;;;;15.97;36.91;92352.78;4972143;28;20199;-90
2024/03/30 03:34:04;;;;;;;61.50;11.27;;;;;;;15.86;37.19;92361.81;4976147;28;20232;-90
2024/03/30 03:36:32;;;;;;;65.07;10.45;;;;;;;15.83;37.43;92386.50;4980593;28;20215;-90
2024/03/30 03:39:03;;;;;;;53.42;10.93;;;;;;;15.84;37.23;92385.44;4987086;28;20716;-89
2024/03/30 03:41:31;;;;;;;54.40;10.07;;;;;;;15.81;37.38;92385.25;4986270;28;20223;-89
2024/03/30 03:43:58;;;;;;;55.30;10.85;;;;;;;15.82;37.58;92391.97;4976398;28;20255;-90
2024/03/30 03:46:24;;;;;;;51.50;10.45;;;;;;;15.91;37.72;92410.25;4976975;28;20200;-89
2024/03/30 03:48:52;;;;;;;56.60;10.15;;;;;;;15.90;37.56;92401.69;4972825;28;20200;-90
2024/03/30 03:51:22;;;;;;;48.58;10.25;;;;;;;15.84;38.15;92410.63;4976134;28;20207;-89
2024/03/30 03:53:51;;;;;;;46.22;9.68;;;;;;;15.88;37.49;92414.97;4976911;28;20223;-90
2024/03/30 03:56:27;;;;;;;58.40;11.07;;;;;;;15.99;37.79;92422.53;4977054;28;20236;-90
2024/03/30 03:58:56;;;;;;;54.08;8.68;;;;;;;16.03;37.51;92411.31;4977327;28;20200;-90
2024/03/30 04:01:24;;;;;;;46.58;8.88;;;;;;;16.05;37.46;92408.44;4976761;28;20196;-91
2024/03/30 04:03:54;;;;;;;46.10;8.55;;;;;;;16.07;37.46;92403.72;4970263;28;20231;-88
2024/03/30 04:06:20;;;;;;;45.08;9.07;;;;;;;16.09;37.41;92410.16;4976122;28;20231;-90
2024/03/30 04:08:55;;;;;;;43.97;9.00;;;;;;;15.98;37.46;92416.59;4975726;28;20299;-90
2024/03/30 04:11:21;;;;;;;53.70;9.65;;;;;;;15.91;37.69;92415.44;4975875;28;20192;-89
2024/03/30 04:13:57;;;;;;;57.25;10.10;;;;;;;15.84;37.91;92434.72;4976067;28;20283;-89
2024/03/30 04:16:31;;;;;;;46.50;8.32;;;;;;;15.83;37.90;92433.19;4975922;28;20411;-90
2024/03/30 04:19:09;;;;;;;51.55;10.07;;;;;;;15.79;38.13;92442.59;4973546;28;20195;-90
2024/03/30 04:21:35;;;;;;;47.60;8.30;;;;;;;15.77;38.24;92441.38;4970553;28;20214;-90
2024/03/30 04:24:05;;;;;;;49.10;8.77;;;;;;;15.69;38.21;92440.19;4975614;28;20250;-90
2024/03/30 04:26:36;;;;;;;46.67;8.73;;;;;;;15.66;38.57;92455.53;4975952;28;20297;-90
2024/03/30 04:32:09;;;;;;;43.58;8.10;;;;;;;15.71;38.21;92452.88;4977347;28;20677;-92
2024/03/30 04:34:42;;;;;;;45.70;9.10;;;;;;;15.73;38.13;92463.72;4986626;28;20219;-89
2024/03/30 04:37:08;;;;;;;39.03;8.48;;;;;;;15.76;38.20;92463.16;4975172;28;20228;-90
2024/03/30 04:39:35;;;;;;;41.00;9.20;;;;;;;15.83;38.31;92460.97;4975046;28;20206;-90
2024/03/30 04:42:02;;;;;;;45.03;8.48;;;;;;;15.81;38.31;92463.06;4971520;28;20204;-90
2024/03/30 04:44:30;;;;;;;43.38;7.40;;;;;;;15.72;38.16;92455.19;4972030;28;20216;-90
2024/03/30 04:47:03;;;;;;;47.55;8.90;;;;;;;15.72;38.19;92475.16;4972229;28;20202;-91
2024/03/30 04:49:29;;;;;;;45.65;8.52;;;;;;;15.59;38.41;92475.91;4972688;28;20216;-91
2024/03/30 04:52:15;;;;;;;53.08;9.30;;;;;;;15.63;38.77;92488.00;4970123;28;20215;-89
2024/03/30 04:54:42;;;;;;;45.90;8.50;;;;;;;15.62;38.43;92477.91;4958384;28;20224;-90
2024/03/30 04:57:28;;;;;;;47.97;8.13;;;;;;;15.59;38.62;92481.09;4971837;28;20220;-89
2024/03/30 05:00:02;;;;;;;42.42;9.15;;;;;;;15.56;38.63;92468.69;4972249;28;20196;-90
2024/03/30 05:02:31;;;;;;;45.53;8.55;;;;;;;15.45;38.69;92468.78;4972641;28;20285;-89
2024/03/30 05:05:00;;;;;;;47.67;8.57;;;;;;;15.36;38.86;92472.31;4971520;28;20258;-90
2024/03/30 05:07:33;;;;;;;41.33;8.25;;;;;;;15.34;38.73;92480.38;4971132;28;20204;-90
2024/03/30 05:09:59;;;;;;;51.20;9.40;;;;;;;15.26;39.20;92482.81;4971577;28;20303;-89
2024/03/30 05:12:25;;;;;;;46.80;9.38;;;;;;;15.09;39.50;92485.91;4971806;28;20232;-89
2024/03/30 05:14:51;;;;;;;36.00;7.95;;;;;;;15.14;39.40;92484.00;4952671;28;20217;-90
2024/03/30 05:17:18;;;;;;;43.20;8.48;;;;;;;15.18;39.46;92515.31;4952413;28;20221;-89
2024/03/30 05:22:32;;;;;;;41.05;8.35;;;;;;;15.15;40.00;92539.19;4952449;28;20196;-89
2024/03/30 05:25:02;;;;;;;52.15;8.60;;;;;;;15.06;40.23;92544.22;4964678;28;20230;-90
2024/03/30 05:27:30;;;;;;;51.10;9.20;;;;;;;15.03;40.41;92551.78;4971556;28;20204;-89
2024/03/30 05:30:01;;;;;;;49.95;8.88;;;;;;;15.02;40.13;92545.81;4979225;28;20208;-89
2024/03/30 05:32:30;;;;;;;49.42;9.18;;;;;;;15.05;40.17;92539.31;4975849;28;20250;-89
2024/03/30 05:34:58;;;;;;;45.47;7.95;;;;;;;15.10;39.83;92526.31;4991441;28;20243;-91
2024/03/30 05:37:23;;;;;;;46.85;7.93;;;;;;;15.21;39.90;92519.94;4990771;28;20239;-90
2024/03/30 05:39:56;;;;;;;54.33;7.90;;;;;;;15.26;39.72;92517.28;4985141;28;20200;-90
2024/03/30 05:42:21;;;;;;;40.30;8.57;;;;;;;15.24;39.70;92506.41;4971227;28;20216;-91
2024/03/30 05:44:50;;;;;;;46.33;8.05;;;;;;;15.19;39.68;92489.13;4971313;28;20871;-89
2024/03/30 05:47:21;;;;;;;44.20;8.52;;;;;;;15.17;39.73;92482.69;4971531;28;20204;-89
2024/03/30 05:49:53;;;;;;;39.47;8.32;;;;;;;15.20;39.56;92471.78;4971790;28;20238;-89
2024/03/30 05:52:21;;;;;;;49.70;8.88;;;;;;;15.25;39.10;92448.34;4969891;28;20216;-90
2024/03/30 05:55:00;;;;;;;45.05;9.18;;;;;;;15.23;38.76;92432.31;4971119;28;20319;-90
2024/03/30 05:57:26;;;;;;;52.03;8.60;;;;;;;15.29;38.41;92426.00;4969476;28;20247;-89
2024/03/30 05:59:53;;;;;;;53.53;7.90;;;;;;;15.35;38.78;92411.16;4971368;28;20207;-89
2024/03/30 06:02:18;;;;;;;40.10;6.93;;;;;;;15.38;38.29;92408.00;4971036;28;20891;-90
2024/03/30 06:04:45;;;;;;;44.47;8.30;;;;;;;15.43;38.82;92403.50;4970966;28;20287;-89
2024/03/30 06:07:16;;;;;;;52.03;8.85;;;;;;;15.46;38.88;92417.72;4971116;28;20212;-89
2024/03/30 06:09:44;;;;;;;39.85;7.75;;;;;;;15.50;38.57;92401.31;4971597;28;20216;-89
2024/03/30 06:12:15;;;;;;;54.92;9.30;;;;;;;15.47;38.44;92396.69;4970082;28;20204;-90
2024/03/30 06:14:46;;;;;;;39.70;8.20;;;;;;;15.44;39.01;92427.59;4971439;28;20303;-89
2024/03/30 06:17:11;;;;;;;39.92;8.98;;;;;;;15.45;38.93;92429.91;4971290;28;20224;-89
2024/03/30 06:19:38;;;;;;;45.72;8.13;;;;;;;15.45;39.14;92423.94;4971051;28;20580;-89
2024/03/30 06:22:06;;;;;;;43.33;8.40;;;;;;;15.44;39.19;92430.94;4970970;28;20216;-90
2024/03/30 06:24:34;;;;;;;44.45;8.18;;;;;;;15.54;39.03;92427.44;4972251;28;20216;-89
2024/03/30 06:26:59;;;;;;;49.72;8.48;;;;;;;15.54;38.92;92423.03;4978448;28;20211;-89
2024/03/30 06:29:27;;;;;;;48.85;8.88;;;;;;;15.56;39.20;92437.56;4964247;28;20223;-89
2024/03/30 06:31:53;;;;;;;38.10;8.35;;;;;;;15.59;39.08;92447.38;4970900;28;20303;-90
2024/03/30 06:34:21;;;;;;;46.20;8.75;;;;;;;15.62;38.84;92444.97;4970960;28;20678;-90
2024/03/30 06:36:50;;;;;;;41.67;7.60;;;;;;;15.69;39.08;92436.81;4970500;28;20255;-90
2024/03/30 06:39:18;;;;;;;45.20;9.15;;;;;;;15.73;39.05;92430.00;4971057;28;20200;-90
2024/03/30 06:44:36;;;;;;;38.28;8.50;;;;;;;15.67;38.99;92415.59;4968893;28;20739;-88
2024/03/30 06:47:05;;;;;;;43.35;8.35;;;;;;;15.60;39.07;92415.19;4970641;28;20215;-89
2024/03/30 06:49:31;;;;;;;55.45;7.75;;;;;;;15.62;39.02;92415.66;4970773;28;20725;-90
2024/03/30 06:52:09;;;;;;;40.55;8.30;;;;;;;15.60;39.26;92426.31;4970720;28;20234;-89
2024/03/30 06:54:36;;;;;;;44.00;7.65;;;;;;;15.62;39.09;92421.63;4971194;28;20228;-89
2024/03/30 06:57:02;;;;;;;52.13;7.90;;;;;;;15.62;38.84;92415.66;4970849;28;20220;-89
2024/03/30 06:59:31;;;;;;;44.78;8.07;;;;;;;15.66;38.87;92412.22;4971081;28;20259;-89
2024/03/30 07:01:58;;;;;;;45.00;8.57;;;;;;;15.78;38.56;92404.75;4967204;28;20219;-89
2024/03/30 07:04:29;;;;;;;44.30;7.32;;;;;;;15.84;38.27;92395.81;4970307;28;20290;-89
2024/03/30 07:06:58;;;;;;;38.80;7.95;;;;;;;15.83;38.40;92370.16;4970350;28;20764;-90
2024/03/30 07:09:24;;;;;;;46.70;8.50;;;;;;;15.85;38.48;92360.28;4970496;28;20291;-89
2024/03/30 07:11:50;;;;;;;45.72;8.20;;;;;;;15.84;38.27;92343.19;4970574;28;20626;-89
2024/03/30 07:14:20;;;;;;;36.92;7.38;;;;;;;15.92;38.11;92354.72;4969993;28;20284;-89
2024/03/30 07:16:45;;;;;;;42.13;7.93;;;;;;;15.96;37.86;92333.09;4969505;28;20579;-89
2024/03/30 07:19:13;;;;;;;40.05;7.22;;;;;;;15.99;37.36;92298.00;4984295;28;20207;-89
2024/03/30 07:21:39;;;;;;;36.13;7.45;;;;;;;16.07;37.41;92311.06;4981280;28;20238;-89
2024/03/30 07:24:06;;;;;;;39.25;8.23;;;;;;;16.16;37.40;92321.56;4974934;28;20248;-89
2024/03/30 07:26:32;;;;;;;43.22;8.32;;;;;;;16.24;37.24;92311.25;4969890;28;20262;-89
2024/03/30 07:28:58;;;;;;;34.60;7.00;;;;;;;16.31;37.09;92297.09;4969811;28;20204;-90
2024/03/30 07:31:25;;;;;;;38.45;6.43;;;;;;;16.35;36.77;92295.47;4970250;28;20745;-89
2024/03/30 07:33:52;;;;;;;38.50;6.93;;;;;;;16.33;36.30;92256.06;4970550;28;20299;-89
2024/03/30 07:36:27;;;;;;;48.40;7.70;;;;;;;16.41;36.68;92270.91;4970775;28;20241;-90
2024/03/30 07:38:59;;;;;;;42.45;6.85;;;;;;;16.46;37.18;92284.56;4969608;28;20223;-89
2024/03/30 07:41:25;;;;;;;34.67;6.07;;;;;;;16.48;37.09;92289.47;4970474;28;20204;-89
2024/03/30 07:43:53;;;;;;;42.47;7.50;;;;;;;16.53;37.07;92300.53;4969778;28;20274;-89
2024/03/30 07:46:18;;;;;;;40.25;7.63;;;;;;;16.60;37.28;92315.69;4969707;28;20208;-90
2024/03/30 07:48:45;;;;;;;37.17;7.20;;;;;;;16.62;37.02;92313.56;4968907;28;20269;-89
2024/03/30 07:51:11;;;;;;;34.30;6.97;;;;;;;16.63;36.89;92304.75;4969687;28;20208;-90
2024/03/30 07:53:38;;;;;;;33.25;7.10;;;;;;;16.71;37.28;92311.84;4970203;28;20270;-89
2024/03/30 07:56:04;;;;;;;40.85;8.98;;;;;;;16.86;37.35;92329.69;4970064;28;20285;-90
2024/03/30 07:58:30;;;;;;;47.80;7.10;;;;;;;16.86;36.97;92311.50;4969659;28;20248;-89
2024/03/30 08:00:56;;;;;;;32.03;6.32;;;;;;;16.86;36.87;92308.13;4970260;28;20644;-89
2024/03/30 08:03:22;;;;;;;38.78;6.85;;;;;;;16.92;37.33;92319.94;4969988;28;20208;-90
2024/03/30 08:05:59;;;;;;;35.97;6.75;;;;;;;17.01;36.95;92320.75;4967814;28;20654;-89
2024/03/30 08:08:28;;;;;;;39.35;6.60;;;;;;;17.18;36.98;92330.50;4969575;28;20216;-90
2024/03/30 08:10:55;;;;;;;30.58;6.03;;;;;;;17.35;37.27;92343.59;4969946;28;20303;-90
2024/03/30 08:13:25;;;;;;;35.00;7.10;;;;;;;17.53;36.72;92324.41;4969299;28;20291;-90
2024/03/30 08:15:53;;;;;;;29.48;6.88;;;;;;;17.62;36.06;92290.66;4970422;28;20270;-90
2024/03/30 08:18:22;;;;;;;37.92;6.50;;;;;;;17.81;35.98;92277.44;4982779;28;20262;-90
2024/03/30 08:20:47;;;;;;;32.20;6.45;;;;;;;18.09;35.80;92283.19;4984587;28;20195;-90
2024/03/30 08:23:14;;;;;;;32.03;6.00;;;;;;;18.53;35.37;92263.91;4972328;28;20673;-90
2024/03/30 08:25:41;;;;;;;30.35;6.88;;;;;;;18.90;34.65;92231.25;4975048;28;20204;-90
2024/03/30 08:28:10;;;;;;;32.85;6.10;;;;;;;19.12;34.39;92214.66;4972885;28;20196;-90
2024/03/30 08:30:37;;;;;;;34.67;6.53;;;;;;;19.32;34.34;92208.75;4973882;28;20626;-89
2024/03/30 08:33:06;;;;;;;29.25;6.70;;;;;;;19.49;33.87;92171.38;4973322;28;20291;-89
2024/03/30 08:35:32;;;;;;;32.30;5.95;;;;;;;19.63;33.65;92138.03;4973248;28;20227;-90
2024/03/30 08:37:58;;;;;;;43.03;6.80;;;;;;;19.95;33.99;92178.38;4968673;28;20224;-88
2024/03/30 08:40:24;;;;;;;37.92;7.40;;;;;;;20.17;32.65;92112.78;4972167;28;20200;-89
2024/03/30 08:42:56;;;;;;;36.50;6.25;;;;;;;20.58;32.12;92064.16;4972915;28;20206;-89
2024/03/30 08:45:24;;;;;;;40.15;7.55;;;;;;;20.68;30.96;91969.63;4972735;28;20694;-89
2024/03/30 08:47:51;;;;;;;41.45;7.53;;;;;;;20.82;31.40;91977.91;4972176;28;20263;-89
2024/03/30 08:50:16;;;;;;;36.55;6.78;;;;;;;20.99;31.10;91967.22;4972483;28;20197;-89
2024/03/30 08:52:43;;;;;;;37.03;6.70;;;;;;;21.32;30.80;91977.56;4972733;28;20204;-89
2024/03/30 08:55:10;;;;;;;44.13;8.05;;;;;;;21.61;29.30;91884.09;4970788;28;20224;-89
2024/03/30 08:57:37;;;;;;;43.55;7.22;;;;;;;21.79;28.47;91790.28;4974373;28;20243;-89
2024/03/30 09:00:08;;;;;;;47.33;6.90;;;;;;;21.99;27.67;91748.13;4972295;28;20212;-89
2024/03/30 09:02:37;;;;;;;46.35;6.63;;;;;;;22.28;27.51;91723.34;4972152;28;20243;-89
2024/03/30 09:05:03;;;;;;;38.92;7.32;;;;;;;22.31;26.57;91653.75;4972488;28;20318;-89
2024/03/30 09:07:29;;;;;;;41.85;7.50;;;;;;;22.37;27.32;91684.56;4971993;28;20291;-89
2024/03/30 09:09:55;;;;;;;35.88;6.95;;;;;;;22.53;27.29;91694.97;4970511;28;20210;-89
2024/03/30 09:12:23;;;;;;;31.40;6.43;;;;;;;22.73;28.21;91754.19;4972311;28;20204;-88
2024/03/30 09:14:50;;;;;;;40.33;7.25;;;;;;;22.77;28.26;91783.13;4978220;28;20215;-89
2024/03/30 09:17:16;;;;;;;44.25;7.70;;;;;;;22.68;28.17;91758.97;4983201;28;20208;-89
2024/03/30 09:19:44;;;;;;;40.08;7.35;;;;;;;22.82;27.96;91754.00;4991498;28;20207;-89
2024/03/30 09:22:10;;;;;;;32.90;6.45;;;;;;;22.50;27.38;91713.28;4990840;28;20208;-89
2024/03/30 09:24:36;;;;;;;41.70;8.27;;;;;;;22.58;27.69;91715.69;4979632;28;20308;-89
2024/03/30 09:27:02;;;;;;;38.45;7.38;;;;;;;22.84;27.55;91711.72;4969887;28;20249;-89
2024/03/30 09:29:28;;;;;;;40.15;7.22;;;;;;;22.94;27.40;91714.50;4954934;28;20209;-89
2024/03/30 09:31:54;;;;;;;37.53;6.78;;;;;;;22.84;27.71;91706.47;4952384;28;20212;-89
2024/03/30 09:34:20;;;;;;;28.42;6.22;;;;;;;22.72;27.29;91678.47;4952586;28;20311;-89
2024/03/30 09:36:48;;;;;;;37.08;6.85;;;;;;;22.64;27.31;91663.75;4952217;28;20300;-89
2024/03/30 09:39:13;;;;;;;41.10;7.65;;;;;;;22.86;27.28;91684.03;4951803;29;20336;-89
2024/03/30 09:41:52;;;;;;;50.42;8.55;;;;;;;22.80;27.04;91647.94;4953579;28;20339;-89
2024/03/30 09:44:18;;;;;;;42.83;7.63;;;;;;;22.71;27.52;91666.47;4971351;28;20238;-89
2024/03/30 09:46:45;;;;;;;38.38;7.13;;;;;;;22.85;27.41;91677.28;4971223;28;20719;-89
2024/03/30 09:49:14;;;;;;;39.97;7.00;;;;;;;23.05;27.12;91657.00;4973927;28;20200;-89
2024/03/30 09:51:43;;;;;;;39.92;6.90;;;;;;;23.15;27.03;91664.28;4971828;28;20314;-89
2024/03/30 09:54:14;;;;;;;40.50;7.57;;;;;;;23.50;27.81;91713.97;4971341;28;20705;-89
2024/03/30 09:56:46;;;;;;;41.60;7.32;;;;;;;23.43;26.87;91654.25;4971217;28;20231;-89
2024/03/30 09:59:14;;;;;;;35.17;6.88;;;;;;;23.52;26.45;91633.00;4969505;28;20310;-89
2024/03/30 10:01:43;;;;;;;33.30;6.72;;;;;;;23.63;26.47;91627.94;4971161;28;20196;-89
2024/03/30 10:04:08;;;;;;;50.60;8.30;;;;;;;23.79;25.76;91596.25;4971595;28;20228;-89
2024/03/30 10:06:48;;;;;;;37.17;6.75;;;;;;;23.82;25.53;91567.41;4970885;28;20709;-89
2024/03/30 10:09:19;;;;;;;44.75;7.50;;;;;;;23.80;25.63;91548.63;4971267;28;20292;-89
2024/03/30 10:11:47;;;;;;;37.67;6.50;;;;;;;23.90;25.88;91557.72;4978623;28;20211;-89
2024/03/30 10:14:19;;;;;;;33.17;6.45;;;;;;;23.85;25.71;91519.41;4981505;28;20282;-89
2024/03/30 10:16:46;;;;;;;31.35;6.88;;;;;;;23.97;25.49;91542.06;4970792;28;20208;-89
2024/03/30 10:19:15;;;;;;;39.90;7.18;;;;;;;23.88;24.75;91449.63;4970532;28;20222;-88
2024/03/30 10:21:42;;;;;;;31.52;6.35;;;;;;;23.85;23.34;91387.34;4971469;28;20208;-88
2024/03/30 10:24:11;;;;;;;26.38;6.15;;;;;;;23.93;23.64;91379.13;4973048;28;20251;-89
2024/03/30 10:26:41;;;;;;;35.55;6.65;;;;;;;23.97;23.63;91373.91;4970827;28;20304;-90
2024/03/30 10:29:06;;;;;;;38.22;6.40;;;;;;;24.11;23.82;91395.81;4971279;28;20288;-89
2024/03/30 10:31:33;;;;;;;34.88;6.22;;;;;;;24.08;23.89;91416.81;4969305;28;20232;-88
2024/03/30 10:33:59;;;;;;;35.72;5.97;;;;;;;24.15;23.98;91406.38;4970347;28;20228;-89
2024/03/30 10:36:28;;;;;;;39.10;6.88;;;;;;;24.17;23.79;91398.88;4970641;28;20595;-89
2024/03/30 10:38:57;;;;;;;31.33;6.40;;;;;;;24.36;24.52;91446.00;4970090;28;20842;-89
2024/03/30 10:41:26;;;;;;;35.85;6.63;;;;;;;24.35;24.15;91433.22;4970029;28;20200;-89
2024/03/30 10:43:53;;;;;;;36.22;6.05;;;;;;;24.49;23.83;91422.06;4970507;28;20253;-89
2024/03/30 10:46:20;;;;;;;30.17;6.70;;;;;;;24.49;23.38;91356.31;4968638;28;20255;-89
2024/03/30 10:48:46;;;;;;;31.08;6.65;;;;;;;24.60;23.70;91391.34;4969881;28;20204;-89
2024/03/30 10:51:13;;;;;;;36.67;5.93;;;;;;;24.83;23.79;91410.28;4970152;28;20216;-89
2024/03/30 10:53:39;;;;;;;32.33;6.45;;;;;;;24.96;23.29;91379.19;4970262;28;20228;-89
2024/03/30 10:56:07;;;;;;;35.42;5.60;;;;;;;24.86;22.97;91369.31;4969714;28;20200;-89
2024/03/30 10:58:36;;;;;;;36.63;6.18;;;;;;;24.83;23.18;91388.47;4969992;28;20228;-90
2024/03/30 11:01:05;;;;;;;31.98;5.85;;;;;;;24.97;23.25;91417.53;4970292;28;20208;-89
2024/03/30 11:03:31;;;;;;;42.92;6.90;;;;;;;24.63;23.02;91382.72;4968517;28;20208;-89
2024/03/30 11:05:59;;;;;;;33.75;5.97;;;;;;;24.64;22.79;91387.59;4969865;28;20237;-89
2024/03/30 11:08:25;;;;;;;35.47;6.65;;;;;;;24.85;23.58;91428.31;4980747;28;20249;-89
2024/03/30 11:11:01;;;;;;;39.38;6.75;;;;;;;24.91;23.61;91440.78;4988891;28;20246;-89
2024/03/30 11:13:26;;;;;;;39.08;5.85;;;;;;;24.91;23.62;91432.88;4974373;28;20192;-88
2024/03/30 11:15:58;;;;;;;35.83;6.70;;;;;;;24.90;22.89;91420.09;4969797;28;20578;-89
2024/03/30 11:18:32;;;;;;;34.45;5.30;;;;;;;24.93;23.13;91411.47;4968607;28;20222;-89
2024/03/30 11:21:13;;;;;;;33.38;6.03;;;;;;;24.78;22.82;91400.88;4963271;28;20298;-89
2024/03/30 11:23:50;;;;;;;37.92;7.13;;;;;;;24.79;22.63;91386.59;4970114;28;20214;-89
2024/03/30 11:26:22;;;;;;;32.42;6.38;;;;;;;24.92;23.47;91415.97;4969678;28;20207;-89
2024/03/30 11:28:57;;;;;;;28.40;5.95;;;;;;;25.00;22.75;91417.56;4969825;28;20724;-89
2024/03/30 11:31:31;;;;;;;32.22;6.20;;;;;;;24.89;22.64;91395.66;4969647;28;20585;-90
2024/03/30 11:34:03;;;;;;;31.90;6.60;;;;;;;24.79;22.64;91383.97;4969458;28;20259;-89
2024/03/30 11:36:37;;;;;;;40.83;5.68;;;;;;;24.91;23.03;91411.84;4959840;28;20307;-89
2024/03/30 11:39:10;;;;;;;31.42;6.18;;;;;;;25.02;22.34;91383.72;4969594;28;20224;-89